Time;durP1;ratioP1;P1;durP2;ratioP2;P2;SDS_P1;SDS_P2;PMS_P1;PMS_P2;Temp;Humidity;BMP_temperature;BMP_pressure;BME280_temperature;BME280_humidity;BME280_pressure;Samples;Min_cycle;Max_cycle;Signal;HPM_P1;HPM_P2
2022/09/28 00:05:07;;;;;;;0.35;0.20;;;8.40;99.90;;;;;;20970855;28;20093;-40
2022/09/28 00:15:08;;;;;;;0.57;0.10;;;8.30;99.90;;;;;;20972256;28;20140;-40
2022/09/28 00:25:09;;;;;;;0.50;0.20;;;8.30;99.90;;;;;;20970629;28;20564;-40
2022/09/28 00:35:10;;;;;;;0.38;0.13;;;8.20;99.90;;;;;;20970069;28;20082;-40
2022/09/28 00:45:11;;;;;;;0.57;0.20;;;8.30;99.90;;;;;;20965685;28;20032;-40
2022/09/28 00:55:16;;;;;;;1.25;0.40;;;8.30;99.90;;;;;;20951318;28;20032;-40
2022/09/28 01:05:17;;;;;;;1.60;0.32;;;8.40;99.90;;;;;;20967102;28;20052;-40
2022/09/28 01:15:20;;;;;;;0.70;0.20;;;8.40;99.90;;;;;;20970886;28;20478;-40
2022/09/28 01:26:12;;;;;;;0.68;0.20;;;8.40;99.90;;;;;;20968418;28;20059;-40
2022/09/28 01:36:37;;;;;;;1.02;0.20;;;8.30;99.90;;;;;;20933476;28;20840;-40
2022/09/28 01:46:43;;;;;;;1.10;0.22;;;8.30;99.90;;;;;;20962845;28;21874;-40
2022/09/28 01:56:53;;;;;;;0.38;0.13;;;8.20;99.90;;;;;;20961271;28;20315;-42
2022/09/28 02:07:08;;;;;;;0.10;0.00;;;8.10;99.90;;;;;;20960061;28;20252;-40
2022/09/28 02:17:10;;;;;;;2.50;0.10;;;8.10;99.90;;;;;;20955101;28;20476;-40
2022/09/28 02:27:44;;;;;;;0.40;0.10;;;8.20;99.90;;;;;;20959512;28;20400;-40
2022/09/28 02:37:45;;;;;;;0.15;0.00;;;8.20;99.90;;;;;;20922362;28;20846;-40
2022/09/28 02:47:55;;;;;;;1.35;0.10;;;8.20;99.90;;;;;;20959852;28;20229;-40
2022/09/28 02:58:10;;;;;;;0.15;0.00;;;8.30;99.90;;;;;;20965201;28;20123;-40
2022/09/28 03:08:27;;;;;;;0.68;0.17;;;8.30;99.90;;;;;;20965836;28;20061;-40
2022/09/28 03:18:28;;;;;;;0.35;0.10;;;8.30;99.90;;;;;;20973965;28;20372;-40
2022/09/28 03:28:29;;;;;;;0.75;0.10;;;8.30;99.90;;;;;;20974892;28;20169;-40
2022/09/28 03:38:30;;;;;;;0.43;0.10;;;8.40;99.90;;;;;;20975197;28;20113;-40
2022/09/28 03:48:34;;;;;;;0.20;0.10;;;8.30;99.90;;;;;;20975081;28;20060;-40
2022/09/28 03:58:35;;;;;;;0.00;0.00;;;8.20;99.90;;;;;;20973320;28;20125;-40
2022/09/28 04:08:36;;;;;;;0.10;0.00;;;8.10;99.90;;;;;;20967819;28;21496;-40
2022/09/28 04:18:38;;;;;;;0.38;0.03;;;8.00;99.90;;;;;;20969256;28;20688;-40
2022/09/28 04:38:59;;;;;;;1.33;0.10;;;7.90;99.90;;;;;;20968972;28;20098;-40
2022/09/28 04:49:01;;;;;;;0.40;0.10;;;8.00;99.90;;;;;;20972006;28;20656;-40
2022/09/28 04:59:02;;;;;;;0.25;0.10;;;8.00;99.90;;;;;;20968825;28;20048;-40
2022/09/28 05:09:03;;;;;;;0.20;0.10;;;8.10;99.90;;;;;;20970494;28;20040;-40
2022/09/28 05:19:05;;;;;;;0.43;0.08;;;8.10;99.90;;;;;;20974436;28;20238;-40
2022/09/28 05:29:06;;;;;;;0.32;0.10;;;8.10;99.90;;;;;;20971050;28;20047;-40
2022/09/28 05:39:08;;;;;;;0.10;0.00;;;8.10;99.90;;;;;;20965858;28;20093;-40
2022/09/28 05:49:09;;;;;;;0.35;0.32;;;8.00;99.90;;;;;;20953375;28;20295;-40
2022/09/28 05:59:11;;;;;;;0.25;0.10;;;7.90;99.90;;;;;;20958984;28;20121;-40
2022/09/28 06:09:12;;;;;;;1.08;0.28;;;7.80;99.90;;;;;;20965147;28;20492;-40
2022/09/28 06:19:13;;;;;;;1.30;0.30;;;7.80;99.90;;;;;;20974265;28;20629;-40
2022/09/28 06:29:17;;;;;;;1.25;0.50;;;7.90;99.90;;;;;;20974732;28;20028;-40
2022/09/28 06:39:18;;;;;;;0.38;0.08;;;8.10;99.90;;;;;;20974486;28;20040;-40
2022/09/28 06:49:19;;;;;;;0.10;0.05;;;8.20;99.90;;;;;;20987073;28;20040;-40
2022/09/28 06:59:20;;;;;;;0.73;0.10;;;8.40;99.90;;;;;;20987850;28;20048;-40
2022/09/28 07:09:21;;;;;;;0.52;0.20;;;8.50;99.90;;;;;;20986429;28;20032;-40
2022/09/28 07:19:22;;;;;;;0.65;0.25;;;8.80;99.90;;;;;;20988086;28;20036;-40
2022/09/28 07:29:23;;;;;;;0.60;0.15;;;9.00;99.90;;;;;;20991572;28;20041;-40
2022/09/28 07:39:24;;;;;;;0.75;0.22;;;9.40;99.90;;;;;;20985276;28;20585;-40
2022/09/28 07:49:25;;;;;;;0.20;0.10;;;9.80;99.90;;;;;;20982854;28;20509;-40
2022/09/28 07:59:26;;;;;;;0.50;0.13;;;10.10;99.90;;;;;;20983918;28;20510;-40
2022/09/28 08:09:28;;;;;;;0.30;0.05;;;10.40;99.90;;;;;;20977966;28;20044;-40
2022/09/28 08:21:43;;;;;;;0.10;0.05;;;10.60;99.90;;;;;;20974163;28;24365;-40
2022/09/28 08:29:50;;;;;;;0.10;0.00;;;11.00;99.90;;;;;;20983739;28;20118;-40
2022/09/28 08:39:51;;;;;;;0.32;0.03;;;11.30;99.90;;;;;;20977224;28;20040;-40
2022/09/28 08:49:53;;;;;;;0.52;0.03;;;11.60;99.90;;;;;;20977614;28;20089;-40
2022/09/28 08:59:59;;;;;;;0.00;0.00;;;12.10;99.90;;;;;;20978923;28;20090;-40
2022/09/28 09:10:13;;;;;;;0.85;0.13;;;12.30;99.90;;;;;;20977661;28;20170;-39
2022/09/28 09:20:23;;;;;;;0.05;0.00;;;12.50;99.90;;;;;;20970308;28;20557;-40
2022/09/28 09:30:25;;;;;;;0.03;0.00;;;12.60;99.90;;;;;;20978180;28;20115;-39
2022/09/28 09:40:35;;;;;;;0.13;0.03;;;12.60;99.90;;;;;;20975858;28;20189;-38
2022/09/28 09:50:44;;;;;;;0.30;0.10;;;12.70;99.90;;;;;;20969648;28;21856;-39
2022/09/28 10:00:49;;;;;;;0.25;0.03;;;12.80;99.90;;;;;;20976241;28;20037;-39
2022/09/28 10:11:07;;;;;;;0.28;0.10;;;12.80;99.90;;;;;;20977327;28;20085;-39
2022/09/28 10:21:16;;;;;;;0.00;0.00;;;12.80;99.90;;;;;;20977225;28;20492;-39
2022/09/28 10:31:39;;;;;;;0.03;0.00;;;13.20;99.90;;;;;;20978373;28;20100;-39
2022/09/28 10:41:49;;;;;;;0.38;0.35;;;13.60;99.90;;;;;;20978926;28;20596;-39
2022/09/28 10:51:53;;;;;;;1.75;1.10;;;13.90;99.90;;;;;;20968228;28;20066;-39
2022/09/28 11:02:03;;;;;;;0.30;0.10;;;13.50;99.90;;;;;;20970602;28;20102;-39
2022/09/28 11:12:05;;;;;;;0.30;0.00;;;13.20;99.90;;;;;;20973420;28;20036;-39
2022/09/28 11:22:32;;;;;;;0.10;0.00;;;13.40;99.90;;;;;;20974916;28;20792;-40
2022/09/28 11:32:44;;;;;;;0.17;0.05;;;14.90;99.90;;;;;;20980915;28;20647;-39
2022/09/28 11:42:55;;;;;;;0.20;0.00;;;14.70;99.90;;;;;;20982015;28;20048;-39
2022/09/28 11:53:03;;;;;;;0.10;0.00;;;14.90;99.90;;;;;;20985268;28;20032;-39
2022/09/28 12:03:17;;;;;;;0.10;0.00;;;16.00;99.90;;;;;;20988112;28;20476;-39
2022/09/28 12:13:24;;;;;;;0.08;0.00;;;15.20;99.90;;;;;;20983555;28;20078;-39
2022/09/28 12:23:34;;;;;;;0.00;0.00;;;15.10;99.90;;;;;;20976849;28;20040;-38
2022/09/28 12:33:37;;;;;;;0.05;0.00;;;16.60;99.90;;;;;;20973084;28;20721;-38
2022/09/28 12:43:48;;;;;;;0.03;0.00;;;18.00;99.90;;;;;;20971777;28;20094;-38
2022/09/28 12:53:57;;;;;;;0.08;0.03;;;18.10;99.90;;;;;;20972279;28;20445;-38
2022/09/28 13:04:46;;;;;;;0.00;0.00;;;17.70;99.90;;;;;;20973642;28;20052;-38
2022/09/28 13:15:27;;;;;;;2.17;0.10;;;17.20;99.90;;;;;;20969444;28;21892;-38
2022/09/28 13:25:31;;;;;;;0.10;0.00;;;17.10;99.90;;;;;;20975139;28;20085;-38
2022/09/28 13:35:33;;;;;;;0.10;0.00;;;15.70;99.90;;;;;;20976619;28;20044;-38
2022/09/28 13:45:52;;;;;;;0.32;0.10;;;14.80;99.90;;;;;;20971447;28;20438;-39
2022/09/28 13:56:23;;;;;;;0.30;0.10;;;14.50;99.90;;;;;;20918448;28;20074;-40
2022/09/28 14:06:31;;;;;;;0.43;0.30;;;14.40;99.90;;;;;;20963546;28;20044;-40
2022/09/28 14:16:34;;;;;;;0.08;0.00;;;15.50;99.90;;;;;;20957742;28;20174;-38
2022/09/28 14:26:50;;;;;;;0.05;0.00;;;15.70;99.90;;;;;;20968833;28;20090;-38
2022/09/28 14:47:41;;;;;;;1.02;0.43;;;14.60;99.90;;;;;;20966610;28;20036;-39
2022/09/28 14:57:42;;;;;;;0.00;0.00;;;14.40;99.90;;;;;;20967167;28;20170;-39
2022/09/28 15:07:49;;;;;;;0.00;0.00;;;13.90;99.90;;;;;;20983515;28;20438;-39
2022/09/28 15:18:01;;;;;;;0.15;0.00;;;12.90;99.90;;;;;;20980843;28;20048;-40
2022/09/28 15:28:17;;;;;;;0.03;0.00;;;12.50;99.90;;;;;;20983291;28;20036;-40
2022/09/28 15:38:18;;;;;;;0.38;0.13;;;12.60;99.90;;;;;;20981001;28;20504;-40
2022/09/28 15:48:29;;;;;;;0.10;0.00;;;12.90;99.90;;;;;;20977906;28;20053;-40
2022/09/28 15:58:31;;;;;;;0.65;0.40;;;13.20;99.90;;;;;;20980350;28;20773;-40
2022/09/28 16:08:35;;;;;;;1.92;0.20;;;13.20;99.90;;;;;;20998953;28;20097;-40
2022/09/28 16:18:38;;;;;;;0.65;0.22;;;13.10;99.90;;;;;;20967847;28;20141;-40
2022/09/28 16:28:41;;;;;;;1.05;0.50;;;13.10;99.90;;;;;;20969141;28;20653;-40
2022/09/28 16:38:45;;;;;;;0.17;0.10;;;13.00;99.90;;;;;;20969621;28;20082;-40
2022/09/28 16:48:48;;;;;;;0.73;0.10;;;12.90;99.90;;;;;;20966176;28;20121;-40
2022/09/28 16:58:49;;;;;;;0.80;0.20;;;12.70;99.90;;;;;;20967701;28;20762;-40
2022/09/28 17:08:51;;;;;;;1.08;0.20;;;12.40;99.90;;;;;;20970361;28;20074;-40
2022/09/28 17:18:52;;;;;;;0.43;0.20;;;12.30;99.90;;;;;;20968880;28;20158;-40
2022/09/28 17:28:53;;;;;;;0.45;0.10;;;12.00;99.90;;;;;;20947276;28;20049;-40
2022/09/28 17:38:54;;;;;;;0.35;0.20;;;11.90;99.90;;;;;;20961987;28;20176;-40
2022/09/28 17:48:59;;;;;;;0.20;0.00;;;11.80;99.90;;;;;;20957258;28;20197;-40
2022/09/28 17:59:03;;;;;;;1.02;0.65;;;11.70;99.90;;;;;;20971012;28;20072;-40
2022/09/28 18:09:04;;;;;;;0.90;0.10;;;11.60;99.90;;;;;;20965422;28;20036;-40
2022/09/28 18:19:05;;;;;;;0.73;0.30;;;11.60;99.90;;;;;;20964975;28;20077;-40
2022/09/28 18:29:06;;;;;;;1.45;0.75;;;11.50;99.90;;;;;;20964873;28;20085;-40
2022/09/28 18:39:07;;;;;;;1.30;0.55;;;11.40;99.90;;;;;;20970856;28;20032;-40
2022/09/28 18:49:09;;;;;;;1.23;0.50;;;11.30;99.90;;;;;;20957194;28;20493;-40
2022/09/28 18:59:11;;;;;;;1.30;0.60;;;11.30;99.90;;;;;;20960093;28;20047;-40
2022/09/28 19:09:12;;;;;;;0.95;0.45;;;11.20;99.90;;;;;;20960057;28;20072;-40
2022/09/28 19:19:15;;;;;;;0.65;0.20;;;11.20;99.90;;;;;;20958324;28;20032;-40
2022/09/28 19:29:16;;;;;;;0.77;0.57;;;11.10;99.90;;;;;;20961828;28;20595;-39
2022/09/28 19:39:17;;;;;;;3.50;1.77;;;11.00;99.90;;;;;;20965161;28;20679;-39
2022/09/28 19:49:21;;;;;;;1.30;0.70;;;10.90;99.90;;;;;;20964393;28;20127;-39
2022/09/28 19:59:22;;;;;;;1.65;0.40;;;10.70;99.90;;;;;;20967635;28;20182;-40
2022/09/28 20:09:23;;;;;;;0.90;0.40;;;10.60;99.90;;;;;;20973128;28;20120;-39
2022/09/28 20:19:25;;;;;;;1.15;0.50;;;10.50;99.90;;;;;;20964093;28;20166;-40
2022/09/28 20:29:26;;;;;;;2.05;1.00;;;10.40;99.90;;;;;;20967012;28;20091;-40
2022/09/28 20:39:27;;;;;;;2.30;0.90;;;10.10;99.90;;;;;;20951333;28;20074;-40
2022/09/28 20:49:28;;;;;;;2.25;1.23;;;10.10;99.90;;;;;;20963429;28;20040;-40
2022/09/28 20:59:30;;;;;;;1.40;0.90;;;10.00;99.90;;;;;;20966157;28;21842;-40
2022/09/28 21:09:31;;;;;;;1.52;0.85;;;10.00;99.90;;;;;;20950704;28;21019;-40
2022/09/28 21:19:32;;;;;;;1.80;1.15;;;9.80;99.90;;;;;;20965711;28;20040;-40
2022/09/28 21:29:33;;;;;;;2.30;0.60;;;9.70;99.90;;;;;;20971033;28;20032;-39
2022/09/28 21:39:34;;;;;;;2.13;1.15;;;9.60;99.90;;;;;;20958299;28;20503;-39
2022/09/28 21:49:35;;;;;;;2.67;1.02;;;9.60;99.90;;;;;;20952044;28;20555;-39
2022/09/28 21:59:36;;;;;;;2.75;1.27;;;9.50;99.90;;;;;;20971331;28;20395;-40
2022/09/28 22:09:37;;;;;;;1.50;0.52;;;9.50;99.90;;;;;;20979355;28;20506;-39
2022/09/28 22:19:39;;;;;;;3.22;1.25;;;9.40;99.90;;;;;;20984281;28;20054;-40
2022/09/28 22:29:41;;;;;;;2.25;0.98;;;9.30;99.90;;;;;;20977795;28;20033;-40
2022/09/28 22:39:42;;;;;;;2.45;1.08;;;9.30;99.90;;;;;;20980054;28;20037;-40
2022/09/28 22:49:43;;;;;;;1.35;0.50;;;9.30;99.90;;;;;;20972907;28;20044;-39
2022/09/28 22:59:44;;;;;;;0.52;0.30;;;9.20;99.90;;;;;;20980233;28;20040;-39
2022/09/28 23:09:45;;;;;;;1.02;0.52;;;9.00;99.90;;;;;;20971878;28;20564;-40
2022/09/28 23:19:46;;;;;;;2.05;0.80;;;8.90;99.90;;;;;;20971717;28;20044;-40
2022/09/28 23:29:47;;;;;;;3.35;1.30;;;8.90;99.90;;;;;;20987486;28;20091;-40
2022/09/28 23:39:49;;;;;;;1.35;0.95;;;9.00;99.90;;;;;;20987993;28;20078;-40
2022/09/28 23:49:50;;;;;;;3.08;1.05;;;9.00;99.90;;;;;;20983857;28;20035;-40
2022/09/28 23:59:51;;;;;;;3.20;1.52;;;9.00;99.90;;;;;;20983109;28;20047;-40
